createdAt,value
2022-09-14T00:01:14.406Z,14.14
2022-09-14T00:02:46.947Z,14.08
2022-09-14T00:04:19.106Z,14.01
2022-09-14T00:05:50.971Z,13.97
2022-09-14T00:07:22.517Z,13.93
2022-09-14T00:08:54.849Z,13.92
2022-09-14T00:10:26.406Z,13.93
2022-09-14T00:11:57.948Z,13.96
2022-09-14T00:13:29.510Z,13.94
2022-09-14T00:15:01.611Z,13.91
2022-09-14T00:16:34.205Z,13.88
2022-09-14T00:18:06.151Z,13.87
2022-09-14T00:19:37.674Z,13.85
2022-09-14T00:21:10.225Z,13.86
2022-09-14T00:22:41.893Z,13.87
2022-09-14T00:24:13.448Z,13.87
2022-09-14T00:25:45.158Z,13.84
2022-09-14T00:27:16.715Z,13.80
2022-09-14T00:28:49.603Z,13.82
2022-09-14T00:30:21.383Z,13.85
2022-09-14T00:31:53.362Z,13.84
2022-09-14T00:33:24.950Z,13.81
2022-09-14T00:34:56.451Z,13.75
2022-09-14T00:36:28.362Z,13.71
2022-09-14T00:37:59.859Z,13.66
2022-09-14T00:39:31.410Z,13.68
2022-09-14T00:41:03.399Z,13.66
2022-09-14T00:42:34.883Z,13.62
2022-09-14T00:44:06.659Z,13.62
2022-09-14T00:45:38.404Z,13.66
2022-09-14T00:47:09.974Z,13.64
2022-09-14T00:48:41.477Z,13.63
2022-09-14T00:50:12.980Z,13.61
2022-09-14T00:51:48.374Z,13.59
2022-09-14T00:53:20.031Z,13.55
2022-09-14T00:54:53.013Z,13.53
2022-09-14T00:56:24.555Z,13.50
2022-09-14T00:57:56.251Z,13.45
2022-09-14T00:59:28.734Z,13.43
2022-09-14T01:01:01.739Z,13.42
2022-09-14T01:02:33.475Z,13.40
2022-09-14T01:04:05.158Z,13.39
2022-09-14T01:05:56.669Z,13.37
2022-09-14T01:07:44.280Z,13.32
2022-09-14T01:09:20.932Z,13.35
2022-09-14T01:10:59.252Z,13.38
2022-09-14T01:12:35.231Z,13.35
2022-09-14T01:14:06.860Z,13.39
2022-09-14T01:15:38.782Z,13.41
2022-09-14T01:17:10.670Z,13.41
2022-09-14T01:18:47.844Z,13.40
2022-09-14T01:20:35.815Z,13.36
2022-09-14T01:22:10.940Z,13.34
2022-09-14T01:24:01.931Z,13.31
2022-09-14T01:25:36.471Z,13.28
2022-09-14T01:27:22.411Z,13.25
2022-09-14T01:28:59.026Z,13.22
2022-09-14T01:30:32.063Z,13.18
2022-09-14T01:32:08.783Z,13.10
2022-09-14T01:33:45.313Z,13.04
2022-09-14T01:35:20.101Z,12.97
2022-09-14T01:36:54.277Z,12.98
2022-09-14T01:38:37.858Z,12.96
2022-09-14T01:40:21.330Z,12.94
2022-09-14T01:41:53.684Z,12.89
2022-09-14T01:43:26.528Z,12.82
2022-09-14T01:44:59.100Z,12.80
2022-09-14T01:46:34.214Z,12.74
2022-09-14T01:48:06.470Z,12.70
2022-09-14T01:49:45.210Z,12.68
2022-09-14T01:51:18.340Z,12.66
2022-09-14T01:52:57.668Z,12.62
2022-09-14T01:54:31.040Z,12.58
2022-09-14T01:56:07.451Z,12.60
2022-09-14T01:57:49.230Z,12.59
2022-09-14T01:59:24.492Z,12.57
2022-09-14T02:00:56.847Z,12.56
2022-09-14T02:02:35.940Z,12.57
2022-09-14T02:04:08.862Z,12.60
2022-09-14T02:05:47.386Z,12.61
2022-09-14T02:07:19.280Z,12.62
2022-09-14T02:08:51.589Z,12.60
2022-09-14T02:10:24.679Z,12.64
2022-09-14T02:12:00.887Z,12.68
2022-09-14T02:13:32.705Z,12.71
2022-09-14T02:15:04.767Z,12.72
2022-09-14T02:16:36.768Z,12.71
2022-09-14T02:18:08.993Z,12.73
2022-09-14T02:19:41.851Z,12.77
2022-09-14T02:21:15.021Z,12.81
2022-09-14T02:22:46.598Z,12.85
2022-09-14T02:24:18.284Z,12.86
2022-09-14T02:25:49.845Z,12.83
2022-09-14T02:27:21.579Z,12.84
2022-09-14T02:28:56.295Z,12.85
2022-09-14T02:30:27.963Z,12.80
2022-09-14T02:31:59.468Z,12.73
2022-09-14T02:33:46.213Z,12.66
2022-09-14T02:35:28.545Z,12.61
2022-09-14T02:37:11.312Z,12.52
2022-09-14T02:38:46.962Z,12.43
2022-09-14T02:40:23.024Z,12.38
2022-09-14T02:41:58.978Z,12.43
2022-09-14T02:43:51.251Z,12.43
2022-09-14T02:45:40.929Z,12.47
2022-09-14T02:47:15.198Z,12.46
2022-09-14T02:48:52.591Z,12.44
2022-09-14T02:50:39.450Z,12.45
2022-09-14T02:52:15.754Z,12.45
2022-09-14T02:53:47.407Z,12.42
2022-09-14T02:55:20.015Z,12.37
2022-09-14T02:56:51.514Z,12.33
2022-09-14T02:58:23.083Z,12.30
2022-09-14T02:59:55.151Z,12.28
2022-09-14T03:01:26.789Z,12.26
2022-09-14T03:02:58.455Z,12.22
2022-09-14T03:04:30.255Z,12.20
2022-09-14T03:06:01.926Z,12.16
2022-09-14T03:07:34.130Z,12.19
2022-09-14T03:09:05.825Z,12.18
2022-09-14T03:10:37.397Z,12.11
2022-09-14T03:12:08.993Z,12.08
2022-09-14T03:13:40.523Z,12.08
2022-09-14T03:15:12.264Z,12.04
2022-09-14T03:16:43.801Z,12.03
2022-09-14T03:18:15.399Z,12.02
2022-09-14T03:19:47.516Z,12.06
2022-09-14T03:21:19.977Z,12.09
2022-09-14T03:22:51.670Z,12.11
2022-09-14T03:24:23.313Z,12.09
2022-09-14T03:25:54.817Z,12.11
2022-09-14T03:27:26.368Z,12.07
2022-09-14T03:28:58.234Z,12.08
2022-09-14T03:30:29.713Z,12.08
2022-09-14T03:32:01.639Z,12.07
2022-09-14T03:33:33.202Z,12.06
2022-09-14T03:35:05.034Z,12.06
2022-09-14T03:36:36.620Z,12.07
2022-09-14T03:38:08.202Z,12.08
2022-09-14T03:39:39.768Z,12.10
2022-09-14T03:41:11.970Z,12.11
2022-09-14T03:42:44.173Z,12.10
2022-09-14T03:44:15.709Z,12.08
2022-09-14T03:45:47.287Z,12.05
2022-09-14T03:47:19.158Z,12.09
2022-09-14T03:48:50.802Z,12.13
2022-09-14T03:50:22.326Z,12.18
2022-09-14T03:51:57.738Z,12.20
2022-09-14T03:53:31.433Z,12.24
2022-09-14T03:55:03.417Z,12.22
2022-09-14T03:56:35.149Z,12.23
2022-09-14T03:58:06.637Z,12.20
2022-09-14T03:59:42.978Z,12.24
2022-09-14T04:01:16.422Z,12.26
2022-09-14T04:02:48.156Z,12.22
2022-09-14T04:04:19.741Z,12.22
2022-09-14T04:05:55.150Z,12.21
2022-09-14T04:07:26.890Z,12.19
2022-09-14T04:09:00.223Z,12.17
2022-09-14T04:10:31.788Z,12.18
2022-09-14T04:12:03.553Z,12.23
2022-09-14T04:13:35.129Z,12.23
2022-09-14T04:15:07.050Z,12.22
2022-09-14T04:16:39.310Z,12.20
2022-09-14T04:18:10.895Z,12.23
2022-09-14T04:19:42.670Z,12.22
2022-09-14T04:21:15.041Z,12.25
2022-09-14T04:22:47.906Z,12.27
2022-09-14T04:24:20.080Z,12.28
2022-09-14T04:25:52.063Z,12.30
2022-09-14T04:27:23.654Z,12.30
2022-09-14T04:28:55.428Z,12.32
2022-09-14T04:30:27.080Z,12.32
2022-09-14T04:31:58.958Z,12.33
2022-09-14T04:33:31.271Z,12.31
2022-09-14T04:35:02.981Z,12.34
2022-09-14T04:36:34.670Z,12.33
2022-09-14T04:38:06.228Z,12.33
2022-09-14T04:39:37.974Z,12.33
2022-09-14T04:41:13.824Z,12.39
2022-09-14T04:42:45.503Z,12.46
2022-09-14T04:44:17.093Z,12.51
2022-09-14T04:45:48.953Z,12.60
2022-09-14T04:47:20.700Z,12.64
2022-09-14T04:48:53.182Z,12.72
2022-09-14T04:50:24.895Z,12.79
2022-09-14T04:51:56.572Z,12.86
2022-09-14T04:53:28.515Z,12.96
2022-09-14T04:55:00.137Z,13.06
2022-09-14T04:56:32.327Z,13.17
2022-09-14T04:58:04.683Z,13.24
2022-09-14T04:59:36.637Z,13.32
2022-09-14T05:01:09.051Z,13.40
2022-09-14T05:02:42.000Z,13.47
2022-09-14T05:04:13.619Z,13.56
2022-09-14T05:05:45.252Z,13.66
2022-09-14T05:07:17.215Z,13.77
2022-09-14T05:08:49.249Z,13.84
2022-09-14T05:10:20.786Z,13.94
2022-09-14T05:11:52.997Z,14.05
2022-09-14T05:13:25.137Z,14.19
2022-09-14T05:14:57.362Z,14.30
2022-09-14T05:16:30.605Z,14.43
2022-09-14T05:18:03.537Z,14.55
2022-09-14T05:19:35.506Z,14.66
2022-09-14T05:21:08.633Z,14.82
2022-09-14T05:22:40.272Z,15.00
2022-09-14T05:24:13.190Z,15.12
2022-09-14T05:25:45.452Z,15.24
2022-09-14T05:27:17.068Z,15.35
2022-09-14T05:28:55.463Z,15.48
2022-09-14T05:30:27.140Z,15.64
2022-09-14T05:31:59.679Z,15.77
2022-09-14T05:33:31.247Z,15.88
2022-09-14T05:35:02.868Z,15.99
2022-09-14T05:36:36.098Z,16.12
2022-09-14T05:38:07.708Z,16.25
2022-09-14T05:39:39.489Z,16.31
2022-09-14T05:41:12.014Z,16.40
2022-09-14T05:42:43.882Z,16.50
2022-09-14T05:44:15.491Z,16.61
2022-09-14T05:45:47.112Z,16.73
2022-09-14T05:47:18.793Z,16.88
2022-09-14T05:48:52.141Z,17.03
2022-09-14T05:50:23.770Z,17.22
2022-09-14T05:51:55.336Z,17.38
2022-09-14T05:53:27.389Z,17.52
2022-09-14T05:54:58.920Z,17.65
2022-09-14T05:56:32.168Z,17.80
2022-09-14T05:58:04.610Z,17.94
2022-09-14T05:59:36.281Z,18.05
2022-09-14T06:01:14.786Z,18.15
2022-09-14T06:02:49.481Z,18.20
2022-09-14T06:04:21.503Z,18.24
2022-09-14T06:05:54.979Z,18.32
2022-09-14T06:07:27.323Z,18.46
2022-09-14T06:08:59.216Z,18.59
2022-09-14T06:10:31.857Z,18.65
2022-09-14T06:12:03.777Z,18.72
2022-09-14T06:13:35.527Z,18.71
2022-09-14T06:15:07.414Z,18.64
2022-09-14T06:16:39.014Z,18.66
2022-09-14T06:18:10.613Z,18.69
2022-09-14T06:19:42.487Z,18.67
2022-09-14T06:21:17.056Z,18.67
2022-09-14T06:22:50.072Z,18.78
2022-09-14T06:24:21.657Z,18.92
2022-09-14T06:25:54.613Z,19.07
2022-09-14T06:27:29.564Z,19.14
2022-09-14T06:29:01.802Z,19.17
2022-09-14T06:30:33.491Z,19.29
2022-09-14T06:32:06.226Z,19.21
2022-09-14T06:33:37.929Z,19.23
2022-09-14T06:35:12.579Z,19.19
2022-09-14T06:36:47.011Z,19.32
2022-09-14T06:38:19.005Z,19.46
2022-09-14T06:39:50.747Z,19.47
2022-09-14T06:41:23.395Z,19.52
2022-09-14T06:42:55.001Z,19.64
2022-09-14T06:44:26.595Z,19.65
2022-09-14T06:46:05.201Z,19.69
2022-09-14T06:47:36.901Z,19.77
2022-09-14T06:49:12.068Z,19.84
2022-09-14T06:50:43.593Z,19.83
2022-09-14T06:52:15.350Z,19.92
2022-09-14T06:53:47.929Z,20.00
2022-09-14T06:55:20.803Z,20.14
2022-09-14T06:56:52.398Z,20.34
2022-09-14T06:58:26.011Z,20.49
2022-09-14T06:59:58.246Z,20.55
2022-09-14T07:01:30.183Z,20.67
2022-09-14T07:03:01.781Z,20.81
2022-09-14T07:04:33.524Z,20.91
2022-09-14T07:06:06.598Z,20.98
2022-09-14T07:07:39.494Z,21.13
2022-09-14T07:09:11.143Z,21.22
2022-09-14T07:10:44.292Z,21.31
2022-09-14T07:12:15.871Z,21.43
2022-09-14T07:13:47.509Z,21.51
2022-09-14T07:15:19.108Z,21.64
2022-09-14T07:16:50.909Z,21.77
2022-09-14T07:18:30.050Z,21.85
2022-09-14T07:20:01.704Z,21.94
2022-09-14T07:21:36.355Z,21.97
2022-09-14T07:23:07.937Z,22.06
2022-09-14T07:24:39.532Z,21.96
2022-09-14T07:26:12.361Z,22.11
2022-09-14T07:27:43.888Z,22.28
2022-09-14T07:29:19.493Z,22.29
2022-09-14T07:30:51.308Z,22.30
2022-09-14T07:32:24.030Z,22.38
2022-09-14T07:33:56.231Z,22.36
2022-09-14T07:35:27.881Z,22.36
2022-09-14T07:36:59.423Z,22.37
2022-09-14T07:38:50.923Z,22.46
2022-09-14T07:40:25.445Z,22.61
2022-09-14T07:41:57.615Z,22.78
2022-09-14T07:43:29.465Z,22.91
2022-09-14T07:45:00.993Z,22.91
2022-09-14T07:46:35.982Z,22.92
2022-09-14T07:48:07.512Z,22.91
2022-09-14T07:49:39.124Z,22.79
2022-09-14T07:51:14.635Z,22.80
2022-09-14T07:52:46.290Z,22.91
2022-09-14T07:54:18.128Z,23.02
2022-09-14T07:55:49.879Z,23.08
2022-09-14T07:57:33.984Z,23.25
2022-09-14T08:01:09.044Z,23.59
2022-09-14T08:02:40.675Z,23.80
2022-09-14T08:04:12.222Z,24.00
2022-09-14T08:05:43.814Z,24.19
2022-09-14T08:07:15.336Z,24.34
2022-09-14T08:08:48.169Z,24.49
2022-09-14T08:10:19.768Z,24.61
2022-09-14T08:11:51.432Z,24.69
2022-09-14T08:13:23.093Z,24.80
2022-09-14T08:14:54.667Z,24.96
2022-09-14T08:16:28.512Z,25.00
2022-09-14T08:18:00.328Z,25.01
2022-09-14T08:19:31.910Z,25.09
2022-09-14T08:21:07.348Z,25.22
2022-09-14T08:22:39.451Z,25.23
2022-09-14T08:24:14.733Z,25.19
2022-09-14T08:25:46.490Z,25.20
2022-09-14T08:27:18.021Z,25.28
2022-09-14T08:28:49.949Z,25.38
2022-09-14T08:30:21.536Z,25.36
2022-09-14T08:31:53.685Z,25.32
2022-09-14T08:33:25.392Z,25.23
2022-09-14T08:34:56.893Z,25.25
2022-09-14T08:36:29.395Z,25.30
2022-09-14T08:38:00.952Z,25.22
2022-09-14T08:39:32.438Z,25.28
2022-09-14T08:41:27.158Z,25.29
2022-09-14T08:42:58.978Z,25.28
2022-09-14T08:44:31.451Z,25.25
2022-09-14T08:46:04.262Z,25.30
2022-09-14T08:47:39.026Z,25.31
2022-09-14T08:49:15.097Z,25.45
2022-09-14T08:50:47.276Z,25.59
2022-09-14T08:52:29.572Z,25.58
2022-09-14T08:54:01.619Z,25.49
2022-09-14T08:55:36.040Z,25.42
2022-09-14T08:57:28.785Z,25.42
2022-09-14T08:59:16.597Z,25.42
2022-09-14T09:00:50.621Z,25.34
2022-09-14T09:02:43.019Z,25.33
2022-09-14T09:04:24.191Z,25.29
2022-09-14T09:05:59.321Z,25.40
2022-09-14T09:07:30.875Z,25.42
2022-09-14T09:09:09.173Z,25.56
2022-09-14T09:10:40.724Z,25.60
2022-09-14T09:12:19.053Z,25.54
2022-09-14T09:13:50.771Z,25.59
2022-09-14T09:15:22.642Z,25.70
2022-09-14T09:16:55.217Z,25.80
2022-09-14T09:18:40.844Z,25.89
2022-09-14T09:20:12.375Z,26.15
2022-09-14T09:21:44.785Z,26.39
2022-09-14T09:23:17.733Z,26.59
2022-09-14T09:24:50.849Z,26.66
2022-09-14T09:26:22.397Z,26.82
2022-09-14T09:27:55.068Z,26.81
2022-09-14T09:29:27.214Z,26.85
2022-09-14T09:30:59.566Z,26.89
2022-09-14T09:32:31.116Z,26.91
2022-09-14T09:34:03.307Z,26.98
2022-09-14T09:35:34.888Z,26.94
2022-09-14T09:37:06.536Z,26.78
2022-09-14T09:38:38.502Z,26.85
2022-09-14T09:40:17.182Z,26.96
2022-09-14T09:42:01.970Z,27.17
2022-09-14T09:43:48.828Z,27.29
2022-09-14T09:45:21.147Z,27.11
2022-09-14T09:46:56.219Z,27.13
2022-09-14T09:48:42.539Z,27.25
2022-09-14T09:50:14.088Z,27.40
2022-09-14T09:51:45.835Z,27.50
2022-09-14T09:53:17.650Z,27.40
2022-09-14T09:54:50.121Z,27.31
2022-09-14T09:56:23.513Z,27.44
2022-09-14T09:57:55.143Z,27.67
2022-09-14T09:59:30.277Z,27.81
2022-09-14T10:01:03.213Z,27.81
2022-09-14T10:02:34.911Z,27.82
2022-09-14T10:04:09.343Z,27.81
2022-09-14T10:05:40.877Z,27.74
2022-09-14T10:07:19.402Z,27.76
2022-09-14T10:08:50.989Z,27.88
2022-09-14T10:10:32.408Z,28.02
2022-09-14T10:12:04.832Z,28.18
2022-09-14T10:13:38.746Z,28.34
2022-09-14T10:15:17.149Z,28.47
2022-09-14T10:16:48.758Z,28.49
2022-09-14T10:18:20.384Z,28.60
2022-09-14T10:19:53.137Z,28.71
2022-09-14T10:21:25.902Z,28.61
2022-09-14T10:22:57.498Z,28.60
2022-09-14T10:24:29.689Z,28.59
2022-09-14T10:26:13.456Z,28.49
2022-09-14T10:27:57.294Z,28.28
2022-09-14T10:29:29.228Z,28.23
2022-09-14T10:31:06.993Z,28.28
2022-09-14T10:34:31.572Z,28.53
2022-09-14T10:36:07.887Z,28.53
2022-09-14T10:37:50.742Z,28.41
2022-09-14T10:39:31.350Z,28.14
2022-09-14T10:41:15.353Z,28.21
2022-09-14T10:42:53.847Z,28.43
2022-09-14T10:44:44.123Z,28.60
2022-09-14T10:46:19.989Z,28.76
2022-09-14T10:48:02.499Z,28.81
2022-09-14T10:49:48.451Z,28.72
2022-09-14T10:51:35.907Z,28.72
2022-09-14T10:53:28.839Z,28.90
2022-09-14T10:55:03.637Z,29.09
2022-09-14T10:56:53.683Z,29.25
2022-09-14T10:58:34.520Z,29.10
2022-09-14T11:00:10.781Z,29.19
2022-09-14T11:02:12.051Z,29.38
2022-09-14T11:03:45.960Z,29.55
2022-09-14T11:05:30.168Z,29.54
2022-09-14T11:07:12.871Z,29.57
2022-09-14T11:08:46.460Z,29.30
2022-09-14T11:10:28.050Z,29.24
2022-09-14T11:12:00.196Z,29.40
2022-09-14T11:13:38.591Z,29.54
2022-09-14T11:15:34.896Z,29.71
2022-09-14T11:17:25.014Z,29.87
2022-09-14T11:19:09.132Z,30.00
2022-09-14T11:20:49.853Z,30.11
2022-09-14T11:22:40.826Z,30.12
2022-09-14T11:24:18.407Z,30.20
2022-09-14T11:25:59.065Z,30.28
2022-09-14T11:27:30.645Z,30.17
2022-09-14T11:29:13.137Z,30.09
2022-09-14T11:30:55.862Z,29.90
2022-09-14T11:32:35.980Z,29.70
2022-09-14T11:34:13.354Z,29.57
2022-09-14T11:35:55.441Z,29.68
2022-09-14T11:37:31.425Z,29.76
2022-09-14T11:39:07.072Z,29.64
2022-09-14T11:40:49.199Z,29.56
2022-09-14T11:42:25.069Z,29.49
2022-09-14T11:44:01.593Z,29.54
2022-09-14T11:45:47.181Z,29.45
2022-09-14T11:47:22.619Z,29.27
2022-09-14T11:49:01.213Z,29.29
2022-09-14T11:50:33.710Z,29.42
2022-09-14T11:52:13.529Z,29.56
2022-09-14T11:53:45.222Z,29.73
2022-09-14T11:55:17.579Z,29.84
2022-09-14T11:56:49.919Z,29.89
2022-09-14T11:58:25.525Z,30.06
2022-09-14T11:59:58.061Z,30.22
2022-09-14T12:01:41.810Z,30.33
2022-09-14T12:03:14.817Z,30.40
2022-09-14T12:05:07.623Z,30.55
2022-09-14T12:06:39.238Z,30.76
2022-09-14T12:08:26.328Z,30.95
2022-09-14T12:10:01.257Z,31.11
2022-09-14T12:11:33.321Z,31.27
2022-09-14T12:13:05.899Z,31.45
2022-09-14T12:14:40.727Z,31.58
2022-09-14T12:16:12.529Z,31.75
2022-09-14T12:17:45.513Z,31.88
2022-09-14T12:19:17.416Z,31.96
2022-09-14T12:21:01.866Z,31.98
2022-09-14T12:22:33.560Z,32.04
2022-09-14T12:24:13.592Z,31.99
2022-09-14T12:25:58.321Z,32.01
2022-09-14T12:27:30.624Z,32.01
2022-09-14T12:29:06.078Z,32.07
2022-09-14T12:30:41.263Z,32.11
2022-09-14T12:32:26.442Z,32.03
2022-09-14T12:34:18.080Z,32.03
2022-09-14T12:35:49.672Z,32.00
2022-09-14T12:37:28.658Z,32.06
2022-09-14T12:44:00.729Z,32.18
2022-09-14T12:45:51.680Z,32.17
2022-09-14T12:47:26.083Z,32.22
2022-09-14T12:49:02.970Z,32.31
2022-09-14T12:50:34.523Z,32.34
2022-09-14T12:52:11.691Z,32.36
2022-09-14T12:53:43.421Z,32.44
2022-09-14T12:55:34.511Z,32.51
2022-09-14T12:57:06.155Z,32.54
2022-09-14T12:58:41.307Z,32.56
2022-09-14T13:00:17.152Z,32.60
2022-09-14T13:01:52.923Z,32.59
2022-09-14T13:03:43.128Z,32.56
2022-09-14T13:05:15.684Z,32.59
2022-09-14T13:06:51.223Z,32.63
2022-09-14T13:08:28.462Z,32.66
2022-09-14T13:10:04.667Z,32.73
2022-09-14T13:11:37.769Z,32.81
2022-09-14T13:13:13.592Z,32.76
2022-09-14T13:14:49.807Z,32.54
2022-09-14T13:16:31.151Z,32.40
2022-09-14T13:18:03.856Z,32.39
2022-09-14T13:19:35.477Z,32.38
2022-09-14T13:21:19.316Z,32.43
2022-09-14T13:22:50.852Z,32.50
2022-09-14T13:24:22.589Z,32.49
2022-09-14T13:25:55.955Z,32.32
2022-09-14T13:27:31.853Z,32.19
2022-09-14T13:29:04.050Z,32.09
2022-09-14T13:30:38.855Z,31.91
2022-09-14T13:32:14.654Z,31.66
2022-09-14T13:33:51.649Z,31.49
2022-09-14T13:35:34.187Z,31.47
2022-09-14T13:37:06.961Z,31.35
2022-09-14T13:38:38.719Z,31.36
2022-09-14T13:40:11.301Z,31.36
2022-09-14T13:41:43.633Z,31.22
2022-09-14T13:43:16.368Z,31.13
2022-09-14T13:44:50.428Z,31.12
2022-09-14T13:46:23.011Z,31.05
2022-09-14T13:47:54.847Z,31.09
2022-09-14T13:49:26.424Z,31.14
2022-09-14T13:50:58.022Z,31.18
2022-09-14T13:52:50.189Z,31.25
2022-09-14T13:54:29.982Z,31.27
2022-09-14T13:56:04.980Z,31.22
2022-09-14T13:57:37.125Z,31.16
2022-09-14T13:59:09.636Z,31.06
2022-09-14T14:00:47.152Z,31.07
2022-09-14T14:02:20.256Z,31.03
2022-09-14T14:03:52.960Z,30.86
2022-09-14T14:05:24.786Z,30.77
2022-09-14T14:07:00.846Z,30.72
2022-09-14T14:08:36.608Z,30.75
2022-09-14T14:10:21.507Z,30.85
2022-09-14T14:11:55.339Z,31.04
2022-09-14T14:13:27.875Z,31.23
2022-09-14T14:15:02.558Z,31.39
2022-09-14T14:16:34.564Z,31.53
2022-09-14T14:18:24.795Z,31.64
2022-09-14T14:20:00.421Z,31.79
2022-09-14T14:21:32.629Z,31.82
2022-09-14T14:23:10.633Z,31.84
2022-09-14T14:25:09.104Z,31.82
2022-09-14T14:26:34.491Z,31.78
2022-09-14T14:28:06.790Z,31.76
2022-09-14T14:29:38.339Z,31.73
2022-09-14T14:31:14.662Z,31.72
2022-09-14T14:32:52.612Z,31.52
2022-09-14T14:34:28.616Z,31.31
2022-09-14T14:36:01.977Z,31.11
2022-09-14T14:37:33.508Z,31.06
2022-09-14T14:39:05.057Z,31.04
2022-09-14T14:40:36.784Z,30.91
2022-09-14T14:42:09.436Z,30.77
2022-09-14T14:43:41.542Z,30.60
2022-09-14T14:45:19.303Z,30.40
2022-09-14T14:46:51.054Z,30.26
2022-09-14T14:48:23.812Z,30.12
2022-09-14T14:49:55.883Z,30.04
2022-09-14T14:51:27.552Z,29.99
2022-09-14T14:52:59.319Z,29.89
2022-09-14T14:54:31.283Z,29.86
2022-09-14T14:56:02.905Z,29.72
2022-09-14T14:57:34.897Z,29.68
2022-09-14T14:59:35.984Z,29.63
2022-09-14T15:01:08.680Z,29.56
2022-09-14T15:02:40.864Z,29.45
2022-09-14T15:04:12.976Z,29.23
2022-09-14T15:05:46.454Z,29.08
2022-09-14T15:07:17.990Z,28.99
2022-09-14T15:08:55.792Z,28.98
2022-09-14T15:10:27.782Z,28.98
2022-09-14T15:11:59.321Z,28.89
2022-09-14T15:13:31.258Z,28.95
2022-09-14T15:15:03.149Z,29.05
2022-09-14T15:16:35.528Z,29.13
2022-09-14T15:18:07.294Z,29.12
2022-09-14T15:19:38.958Z,29.16
2022-09-14T15:21:10.657Z,29.21
2022-09-14T15:22:42.883Z,29.18
2022-09-14T15:24:14.433Z,29.23
2022-09-14T15:25:46.028Z,29.24
2022-09-14T15:27:17.684Z,29.20
2022-09-14T15:28:50.789Z,29.16
2022-09-14T15:30:22.550Z,28.99
2022-09-14T15:31:55.288Z,28.89
2022-09-14T15:33:27.376Z,28.78
2022-09-14T15:34:58.913Z,28.70
2022-09-14T15:36:50.458Z,28.69
2022-09-14T15:38:22.218Z,28.56
2022-09-14T15:39:53.872Z,28.44
2022-09-14T15:41:25.426Z,28.38
2022-09-14T15:42:56.982Z,28.33
2022-09-14T15:44:28.625Z,28.31
2022-09-14T15:46:03.758Z,28.22
2022-09-14T15:47:36.665Z,28.07
2022-09-14T15:49:09.415Z,27.94
2022-09-14T15:50:41.861Z,27.81
2022-09-14T15:52:13.753Z,27.79
2022-09-14T15:53:46.206Z,27.69
2022-09-14T15:55:17.906Z,27.59
2022-09-14T15:56:50.381Z,27.55
2022-09-14T15:58:22.001Z,27.51
2022-09-14T15:59:54.041Z,27.51
2022-09-14T16:01:25.716Z,27.47
2022-09-14T16:02:57.374Z,27.40
2022-09-14T16:04:28.996Z,27.33
2022-09-14T16:06:00.569Z,27.34
2022-09-14T16:07:32.222Z,27.35
2022-09-14T16:09:04.738Z,27.31
2022-09-14T16:10:36.304Z,27.30
2022-09-14T16:12:11.014Z,27.19
2022-09-14T16:13:42.597Z,27.15
2022-09-14T16:15:14.167Z,27.15
2022-09-14T16:16:45.895Z,27.15
2022-09-14T16:18:17.470Z,27.11
2022-09-14T16:19:49.482Z,27.08
2022-09-14T16:21:22.154Z,27.07
2022-09-14T16:22:53.800Z,27.03
2022-09-14T16:24:25.487Z,26.97
2022-09-14T16:25:57.146Z,26.97
2022-09-14T16:27:28.645Z,26.93
2022-09-14T16:29:00.253Z,26.89
2022-09-14T16:30:32.018Z,26.87
2022-09-14T16:32:03.609Z,26.86
2022-09-14T16:33:41.763Z,26.82
2022-09-14T16:35:13.459Z,26.75
2022-09-14T16:36:45.066Z,26.69
2022-09-14T16:38:17.234Z,26.66
2022-09-14T16:39:49.476Z,26.67
2022-09-14T16:41:21.237Z,26.66
2022-09-14T16:42:53.007Z,26.61
2022-09-14T16:44:26.529Z,26.52
2022-09-14T16:46:02.082Z,26.47
2022-09-14T16:47:33.621Z,26.40
2022-09-14T16:49:08.635Z,26.37
2022-09-14T16:50:40.595Z,26.34
2022-09-14T16:52:12.107Z,26.29
2022-09-14T16:53:47.156Z,26.27
2022-09-14T16:55:18.860Z,26.23
2022-09-14T16:56:50.966Z,26.22
2022-09-14T16:58:23.031Z,26.12
2022-09-14T16:59:54.625Z,26.04
2022-09-14T17:01:26.296Z,25.94
2022-09-14T17:02:57.930Z,25.87
2022-09-14T17:04:29.634Z,25.74
2022-09-14T17:06:02.286Z,25.62
2022-09-14T17:07:34.000Z,25.56
2022-09-14T17:09:06.486Z,25.47
2022-09-14T17:10:38.268Z,25.41
2022-09-14T17:12:09.893Z,25.32
2022-09-14T17:13:43.578Z,25.24
2022-09-14T17:15:15.668Z,25.17
2022-09-14T17:16:47.576Z,25.11
2022-09-14T17:18:19.422Z,25.07
2022-09-14T17:19:51.065Z,25.06
2022-09-14T17:21:25.473Z,25.02
2022-09-14T17:22:57.809Z,24.98
2022-09-14T17:24:29.410Z,24.99
2022-09-14T17:26:01.242Z,24.96
2022-09-14T17:27:32.921Z,24.97
2022-09-14T17:29:04.948Z,24.94
2022-09-14T17:30:36.629Z,24.90
2022-09-14T17:32:12.500Z,24.84
2022-09-14T17:33:47.433Z,24.85
2022-09-14T17:35:19.166Z,24.85
2022-09-14T17:36:50.719Z,24.83
2022-09-14T17:38:23.021Z,24.83
2022-09-14T17:39:55.091Z,24.78
2022-09-14T17:41:28.188Z,24.71
2022-09-14T17:42:59.963Z,24.69
2022-09-14T17:44:31.995Z,24.61
2022-09-14T17:46:04.403Z,24.53
2022-09-14T17:47:36.263Z,24.47
2022-09-14T17:49:10.581Z,24.48
2022-09-14T17:50:42.136Z,24.50
2022-09-14T17:52:14.280Z,24.43
2022-09-14T17:53:46.240Z,24.39
2022-09-14T17:55:18.248Z,24.33
2022-09-14T17:56:49.810Z,24.27
2022-09-14T17:58:21.714Z,24.22
2022-09-14T17:59:53.311Z,24.16
2022-09-14T18:01:25.085Z,24.11
2022-09-14T18:02:56.905Z,24.03
2022-09-14T18:04:28.730Z,23.97
2022-09-14T18:06:00.543Z,23.91
2022-09-14T18:07:32.102Z,23.83
2022-09-14T18:09:06.803Z,23.80
2022-09-14T18:10:39.018Z,23.76
2022-09-14T18:12:11.014Z,23.72
2022-09-14T18:13:42.954Z,23.67
2022-09-14T18:15:15.426Z,23.61
2022-09-14T18:16:47.201Z,23.57
2022-09-14T18:18:19.009Z,23.55
2022-09-14T18:19:54.693Z,23.49
2022-09-14T18:21:26.286Z,23.49
2022-09-14T18:22:58.514Z,23.51
2022-09-14T18:24:30.107Z,23.49
2022-09-14T18:26:05.354Z,23.46
2022-09-14T18:27:37.180Z,23.39
2022-09-14T18:29:10.052Z,23.36
2022-09-14T18:30:43.672Z,23.35
2022-09-14T18:32:15.434Z,23.35
2022-09-14T18:33:48.176Z,23.37
2022-09-14T18:35:19.772Z,23.40
2022-09-14T18:36:52.095Z,23.47
2022-09-14T18:38:23.845Z,23.47
2022-09-14T18:39:55.716Z,23.45
2022-09-14T18:41:31.497Z,23.43
2022-09-14T18:43:03.341Z,23.41
2022-09-14T18:44:34.930Z,23.45
2022-09-14T18:46:07.237Z,23.47
2022-09-14T18:47:39.317Z,23.49
2022-09-14T18:49:11.201Z,23.50
2022-09-14T18:50:42.757Z,23.52
2022-09-14T18:52:14.598Z,23.53
2022-09-14T18:53:46.276Z,23.54
2022-09-14T18:55:19.175Z,23.53
2022-09-14T18:56:51.626Z,23.50
2022-09-14T18:58:23.249Z,23.49
2022-09-14T18:59:55.309Z,23.47
2022-09-14T19:01:27.496Z,23.46
2022-09-14T19:02:59.515Z,23.45
2022-09-14T19:04:31.409Z,23.44
2022-09-14T19:06:16.079Z,23.49
2022-09-14T19:07:48.010Z,23.56
2022-09-14T19:09:19.760Z,23.60
2022-09-14T19:10:51.431Z,23.53
2022-09-14T19:12:23.119Z,23.48
2022-09-14T19:13:55.298Z,23.46
2022-09-14T19:15:30.758Z,23.47
2022-09-14T19:17:04.030Z,23.46
2022-09-14T19:18:35.771Z,23.40
2022-09-14T19:20:08.536Z,23.29
2022-09-14T19:21:40.346Z,23.20
2022-09-14T19:23:11.984Z,23.15
2022-09-14T19:24:43.563Z,23.14
2022-09-14T19:26:16.336Z,23.18
2022-09-14T19:27:50.015Z,23.17
2022-09-14T19:29:22.183Z,23.20
2022-09-14T19:30:53.761Z,23.21
2022-09-14T19:32:25.474Z,23.21
2022-09-14T19:33:57.891Z,23.17
2022-09-14T19:35:30.163Z,23.11
2022-09-14T19:37:01.819Z,23.07
2022-09-14T19:38:33.467Z,23.08
2022-09-14T19:40:05.797Z,23.11
2022-09-14T19:41:37.504Z,23.08
2022-09-14T19:43:09.261Z,23.11
2022-09-14T19:44:41.101Z,23.11
2022-09-14T19:46:14.716Z,23.05
2022-09-14T19:47:46.433Z,22.99
2022-09-14T19:49:19.358Z,22.91
2022-09-14T19:50:51.128Z,22.85
2022-09-14T19:52:22.649Z,22.80
2022-09-14T19:53:54.894Z,22.83
2022-09-14T19:55:27.446Z,22.87
2022-09-14T19:56:59.524Z,22.84
2022-09-14T19:58:34.176Z,22.75
2022-09-14T20:00:08.384Z,22.68
2022-09-14T20:01:40.327Z,22.62
2022-09-14T20:03:12.128Z,22.56
2022-09-14T20:04:44.067Z,22.55
2022-09-14T20:06:23.483Z,22.50
2022-09-14T20:07:55.411Z,22.43
2022-09-14T20:09:27.081Z,22.42
2022-09-14T20:11:09.735Z,22.34
2022-09-14T20:12:41.251Z,22.27
2022-09-14T20:14:15.062Z,22.22
2022-09-14T20:15:46.763Z,22.20
2022-09-14T20:17:18.804Z,22.16
2022-09-14T20:18:50.521Z,22.10
2022-09-14T20:20:22.617Z,22.04
2022-09-14T20:21:54.225Z,22.04